createdAt,value
2022-07-29T00:00:59.249Z,18.20
2022-07-29T00:03:26.248Z,18.00
2022-07-29T00:05:54.109Z,17.90
2022-07-29T00:08:21.105Z,17.70
2022-07-29T00:10:48.047Z,17.70
2022-07-29T00:13:14.940Z,17.70
2022-07-29T00:15:41.803Z,17.70
2022-07-29T00:18:08.551Z,17.70
2022-07-29T00:20:35.366Z,17.60
2022-07-29T00:23:02.115Z,17.60
2022-07-29T00:25:28.803Z,17.50
2022-07-29T00:27:55.487Z,17.50
2022-07-29T00:30:22.315Z,17.60
2022-07-29T00:32:49.074Z,17.70
2022-07-29T00:35:34.121Z,17.60
2022-07-29T00:38:00.813Z,17.60
2022-07-29T00:40:28.929Z,17.60
2022-07-29T00:42:55.736Z,17.60
2022-07-29T00:45:23.217Z,17.40
2022-07-29T00:47:50.178Z,17.30
2022-07-29T00:50:17.366Z,17.40
2022-07-29T00:52:44.250Z,17.40
2022-07-29T00:55:13.458Z,17.40
2022-07-29T00:57:41.977Z,17.50
2022-07-29T01:00:12.670Z,17.50
2022-07-29T01:02:39.553Z,17.40
2022-07-29T01:05:07.102Z,17.30
2022-07-29T01:07:36.105Z,17.30
2022-07-29T01:10:05.321Z,17.20
2022-07-29T01:12:34.707Z,17.20
2022-07-29T01:15:03.708Z,17.20
2022-07-29T01:17:53.606Z,17.20
2022-07-29T01:20:39.102Z,17.20
2022-07-29T01:23:56.243Z,17.20
2022-07-29T01:26:33.997Z,17.30
2022-07-29T01:29:16.879Z,17.30
2022-07-29T01:32:00.867Z,17.20
2022-07-29T01:34:51.324Z,17.30
2022-07-29T01:37:25.929Z,17.20
2022-07-29T01:39:56.202Z,17.20
2022-07-29T01:42:31.766Z,17.20
2022-07-29T01:45:03.080Z,17.20
2022-07-29T01:47:39.852Z,17.10
2022-07-29T01:50:11.332Z,17.00
2022-07-29T01:53:00.896Z,17.10
2022-07-29T01:55:32.075Z,17.10
2022-07-29T01:58:01.060Z,17.10
2022-07-29T02:00:29.326Z,17.00
2022-07-29T02:02:57.071Z,17.00
2022-07-29T02:05:28.246Z,17.00
2022-07-29T02:07:56.794Z,17.00
2022-07-29T02:10:27.642Z,16.90
2022-07-29T02:12:56.839Z,16.90
2022-07-29T02:15:29.706Z,17.00
2022-07-29T02:18:00.929Z,17.10
2022-07-29T02:20:29.980Z,17.00
2022-07-29T02:22:59.494Z,16.90
2022-07-29T02:25:37.066Z,16.90
2022-07-29T02:28:07.573Z,17.00
2022-07-29T02:30:37.760Z,17.00
2022-07-29T02:33:05.666Z,17.00
2022-07-29T02:35:34.635Z,17.00
2022-07-29T02:38:22.829Z,17.00
2022-07-29T02:40:51.511Z,17.10
2022-07-29T02:43:19.545Z,17.10
2022-07-29T02:45:48.330Z,17.00
2022-07-29T02:48:22.594Z,17.00
2022-07-29T02:50:55.545Z,17.10
2022-07-29T02:53:26.054Z,17.10
2022-07-29T02:56:07.488Z,17.10
2022-07-29T02:58:47.210Z,17.20
2022-07-29T03:01:21.865Z,17.20
2022-07-29T03:03:50.599Z,17.00
2022-07-29T03:06:37.656Z,17.10
2022-07-29T03:09:12.956Z,17.00
2022-07-29T03:11:50.093Z,17.00
2022-07-29T03:14:20.339Z,17.10
2022-07-29T03:16:48.379Z,17.10
2022-07-29T03:19:15.480Z,17.10
2022-07-29T03:21:42.170Z,17.00
2022-07-29T03:24:10.827Z,16.90
2022-07-29T03:26:37.925Z,17.00
2022-07-29T03:29:04.663Z,17.10
2022-07-29T03:31:32.150Z,17.10
2022-07-29T03:34:00.410Z,17.10
2022-07-29T03:36:27.111Z,17.20
2022-07-29T03:38:54.404Z,17.10
2022-07-29T03:41:23.512Z,17.10
2022-07-29T03:43:52.535Z,17.10
2022-07-29T03:46:22.270Z,17.10
2022-07-29T03:48:53.852Z,17.10
2022-07-29T03:51:33.329Z,17.10
2022-07-29T03:54:09.870Z,17.20
2022-07-29T03:56:48.700Z,17.20
2022-07-29T03:59:17.142Z,17.20
2022-07-29T04:01:45.719Z,17.10
2022-07-29T04:04:13.191Z,17.20
2022-07-29T04:06:44.661Z,17.20
2022-07-29T04:09:13.044Z,17.10
2022-07-29T04:12:01.475Z,17.10
2022-07-29T04:14:27.997Z,17.10
2022-07-29T04:16:54.686Z,17.10
2022-07-29T04:19:21.338Z,17.20
2022-07-29T04:21:48.140Z,17.10
2022-07-29T04:24:15.411Z,17.10
2022-07-29T04:26:42.439Z,17.20
2022-07-29T04:29:09.369Z,17.20
2022-07-29T04:31:36.123Z,17.10
2022-07-29T04:34:02.853Z,17.10
2022-07-29T04:36:30.181Z,17.20
2022-07-29T04:38:57.218Z,17.20
2022-07-29T04:41:23.916Z,17.20
2022-07-29T04:44:02.033Z,17.20
2022-07-29T04:46:28.957Z,17.30
2022-07-29T04:48:55.830Z,17.30
2022-07-29T04:51:22.666Z,17.30
2022-07-29T04:53:49.378Z,17.30
2022-07-29T04:56:16.101Z,17.30
2022-07-29T04:58:42.838Z,17.40
2022-07-29T05:01:09.609Z,17.40
2022-07-29T05:03:36.446Z,17.30
2022-07-29T05:06:03.375Z,17.30
2022-07-29T05:08:30.133Z,17.20
2022-07-29T05:10:56.925Z,17.30
2022-07-29T05:13:23.709Z,17.40
2022-07-29T05:15:50.688Z,17.50
2022-07-29T05:18:17.436Z,17.50
2022-07-29T05:20:44.365Z,17.60
2022-07-29T05:23:13.645Z,17.60
2022-07-29T05:25:43.487Z,17.60
2022-07-29T05:28:11.904Z,17.60
2022-07-29T05:30:39.152Z,17.70
2022-07-29T05:33:05.910Z,17.70
2022-07-29T05:35:32.721Z,17.70
2022-07-29T05:37:59.427Z,17.80
2022-07-29T05:40:26.174Z,17.90
2022-07-29T05:42:52.928Z,17.90
2022-07-29T05:45:19.611Z,17.90
2022-07-29T05:47:46.566Z,18.00
2022-07-29T05:50:13.541Z,18.10
2022-07-29T05:52:40.351Z,18.10
2022-07-29T05:55:07.463Z,18.10
2022-07-29T05:57:34.262Z,18.20
2022-07-29T06:00:01.038Z,18.10
2022-07-29T06:02:27.886Z,17.90
2022-07-29T06:04:54.872Z,18.00
2022-07-29T06:07:22.023Z,18.10
2022-07-29T06:09:48.814Z,18.10
2022-07-29T06:12:15.616Z,18.20
2022-07-29T06:14:42.525Z,18.30
2022-07-29T06:17:09.337Z,18.30
2022-07-29T06:19:37.240Z,18.10
2022-07-29T06:22:04.414Z,18.10
2022-07-29T06:24:31.637Z,18.00
2022-07-29T06:26:58.322Z,18.10
2022-07-29T06:29:25.114Z,18.00
2022-07-29T06:31:52.021Z,17.90
2022-07-29T06:34:19.300Z,18.00
2022-07-29T06:36:47.561Z,18.20
2022-07-29T06:39:15.556Z,18.20
2022-07-29T06:41:42.461Z,18.40
2022-07-29T06:44:09.294Z,18.60
2022-07-29T06:46:36.195Z,18.70
2022-07-29T06:49:03.451Z,18.40
2022-07-29T06:51:30.497Z,18.50
2022-07-29T06:54:02.046Z,18.50
2022-07-29T06:56:39.420Z,18.60
2022-07-29T06:59:07.514Z,18.90
2022-07-29T07:01:34.362Z,19.10
2022-07-29T07:04:01.303Z,19.00
2022-07-29T07:06:28.427Z,19.10
2022-07-29T07:08:55.329Z,19.50
2022-07-29T07:11:22.224Z,19.60
2022-07-29T07:13:48.950Z,19.20
2022-07-29T07:16:15.948Z,19.00
2022-07-29T07:18:43.038Z,19.20
2022-07-29T07:21:09.813Z,19.20
2022-07-29T07:23:36.536Z,19.20
2022-07-29T07:26:04.044Z,19.10
2022-07-29T07:28:30.735Z,19.30
2022-07-29T07:30:57.559Z,19.50
2022-07-29T07:33:24.402Z,19.60
2022-07-29T07:35:51.314Z,19.70
2022-07-29T07:38:18.046Z,20.00
2022-07-29T07:40:44.723Z,20.10
2022-07-29T07:43:11.463Z,20.10
2022-07-29T07:45:38.557Z,20.20
2022-07-29T07:48:05.901Z,20.30
2022-07-29T07:50:32.751Z,20.30
2022-07-29T07:52:59.728Z,20.30
2022-07-29T07:55:27.209Z,20.30
2022-07-29T07:57:54.972Z,20.20
2022-07-29T08:00:23.225Z,20.40
2022-07-29T08:02:51.051Z,20.50
2022-07-29T08:05:18.606Z,20.80
2022-07-29T08:07:46.951Z,21.20
2022-07-29T08:10:16.052Z,21.00
2022-07-29T08:12:44.657Z,20.80
2022-07-29T08:15:11.470Z,21.00
2022-07-29T08:17:38.150Z,21.10
2022-07-29T08:20:05.350Z,21.20
2022-07-29T08:22:32.169Z,21.30
2022-07-29T08:24:58.885Z,21.30
2022-07-29T08:27:43.292Z,21.30
2022-07-29T08:30:11.272Z,21.10
2022-07-29T08:32:53.322Z,21.20
2022-07-29T08:35:22.278Z,21.20
2022-07-29T08:37:49.322Z,21.40
2022-07-29T08:40:16.205Z,21.60
2022-07-29T08:42:43.165Z,21.70
2022-07-29T08:45:10.334Z,21.80
2022-07-29T08:47:40.494Z,21.90
2022-07-29T08:50:11.297Z,21.90
2022-07-29T08:52:40.117Z,21.90
2022-07-29T08:55:09.358Z,21.80
2022-07-29T08:57:37.344Z,21.80
2022-07-29T09:00:11.559Z,22.00
2022-07-29T09:02:46.802Z,22.10
2022-07-29T09:05:15.312Z,22.20
2022-07-29T09:07:44.219Z,22.30
2022-07-29T09:10:11.433Z,22.40
2022-07-29T09:12:38.851Z,22.70
2022-07-29T09:15:06.187Z,22.80
2022-07-29T09:17:49.570Z,23.00
2022-07-29T09:20:18.020Z,23.20
2022-07-29T09:22:48.161Z,23.20
2022-07-29T09:25:14.878Z,23.20
2022-07-29T09:27:42.042Z,23.00
2022-07-29T09:30:13.315Z,23.00
2022-07-29T09:32:58.258Z,23.10
2022-07-29T09:35:26.869Z,23.40
2022-07-29T09:37:53.777Z,23.60
2022-07-29T09:40:29.099Z,23.50
2022-07-29T09:42:58.169Z,23.80
2022-07-29T09:45:33.813Z,24.00
2022-07-29T09:48:13.494Z,24.10
2022-07-29T09:50:42.235Z,24.10
2022-07-29T09:53:12.339Z,24.20
2022-07-29T09:55:52.528Z,24.20
2022-07-29T09:58:21.201Z,24.20
2022-07-29T10:00:49.145Z,24.10
2022-07-29T10:03:17.179Z,24.30
2022-07-29T10:05:44.811Z,24.50
2022-07-29T10:08:13.465Z,24.70
2022-07-29T10:10:42.695Z,24.90
2022-07-29T10:13:16.605Z,25.10
2022-07-29T10:15:46.292Z,25.40
2022-07-29T10:18:14.805Z,25.60
2022-07-29T10:20:42.338Z,25.80
2022-07-29T10:23:10.263Z,25.70
2022-07-29T10:25:37.202Z,25.70
2022-07-29T10:28:04.102Z,25.70
2022-07-29T10:30:31.949Z,25.80
2022-07-29T10:33:15.168Z,25.80
2022-07-29T10:35:56.827Z,25.80
2022-07-29T10:38:49.515Z,26.00
2022-07-29T10:41:32.070Z,26.30
2022-07-29T10:44:17.054Z,26.40
2022-07-29T10:46:44.751Z,26.30
2022-07-29T10:49:18.887Z,26.20
2022-07-29T10:51:58.962Z,26.20
2022-07-29T10:54:43.682Z,26.10
2022-07-29T10:57:14.019Z,26.00
2022-07-29T10:59:46.254Z,26.10
2022-07-29T11:02:41.430Z,26.10
2022-07-29T11:05:20.575Z,26.20
2022-07-29T11:11:22.215Z,26.40
2022-07-29T11:14:10.348Z,26.60
2022-07-29T11:17:14.359Z,26.60
2022-07-29T11:19:46.791Z,26.40
2022-07-29T11:22:35.342Z,26.20
2022-07-29T11:25:50.320Z,26.00
2022-07-29T11:28:23.158Z,26.20
2022-07-29T11:30:54.105Z,26.30
2022-07-29T11:33:54.193Z,26.40
2022-07-29T11:36:27.951Z,26.50
2022-07-29T11:39:36.371Z,26.40
2022-07-29T11:42:28.194Z,26.50
2022-07-29T11:45:44.360Z,26.50
2022-07-29T11:47:55.763Z,26.50
2022-07-29T11:50:37.555Z,26.50
2022-07-29T11:53:16.081Z,26.40
2022-07-29T11:55:50.985Z,26.30
2022-07-29T11:58:24.870Z,26.30
2022-07-29T12:00:52.531Z,26.50
2022-07-29T12:03:33.562Z,26.70
2022-07-29T12:06:07.938Z,26.70
2022-07-29T12:08:42.419Z,26.50
2022-07-29T12:11:21.691Z,26.50
2022-07-29T12:13:49.845Z,26.70
2022-07-29T12:16:25.722Z,26.70
2022-07-29T12:19:08.185Z,26.80
2022-07-29T12:21:56.758Z,26.80
2022-07-29T12:24:26.735Z,26.80
2022-07-29T12:26:58.898Z,26.80
2022-07-29T12:29:35.638Z,26.80
2022-07-29T12:32:05.250Z,26.90
2022-07-29T12:34:33.029Z,26.80
2022-07-29T12:37:02.205Z,26.70
2022-07-29T12:39:30.280Z,26.80
2022-07-29T12:42:03.793Z,27.00
2022-07-29T12:44:52.495Z,27.10
2022-07-29T12:47:20.530Z,27.20
2022-07-29T12:49:48.521Z,27.20
2022-07-29T12:52:29.680Z,27.30
2022-07-29T12:54:56.721Z,27.30
2022-07-29T12:57:24.888Z,27.30
2022-07-29T13:00:06.240Z,27.40
2022-07-29T13:02:33.076Z,27.60
2022-07-29T13:05:01.804Z,27.60
2022-07-29T13:07:55.642Z,27.70
2022-07-29T13:10:24.314Z,27.90
2022-07-29T13:13:04.554Z,27.80
2022-07-29T13:15:32.488Z,27.80
2022-07-29T13:17:59.553Z,27.90
2022-07-29T13:20:30.565Z,28.00
2022-07-29T13:23:01.699Z,28.00
2022-07-29T13:25:32.641Z,28.00
2022-07-29T13:28:00.586Z,28.10
2022-07-29T13:30:27.535Z,28.20
2022-07-29T13:32:54.375Z,28.10
2022-07-29T13:35:21.332Z,28.00
2022-07-29T13:37:48.335Z,28.10
2022-07-29T13:40:15.282Z,28.10
2022-07-29T13:42:42.411Z,28.10
2022-07-29T13:45:11.672Z,28.10
2022-07-29T13:47:39.037Z,28.20
2022-07-29T13:50:07.080Z,28.30
2022-07-29T13:52:34.464Z,28.30
2022-07-29T13:55:01.320Z,28.40
2022-07-29T13:57:28.930Z,28.20
2022-07-29T13:59:55.785Z,28.10
2022-07-29T14:02:25.357Z,27.90
2022-07-29T14:04:53.733Z,27.60
2022-07-29T14:07:20.805Z,27.20
2022-07-29T14:09:47.549Z,27.00
2022-07-29T14:12:14.281Z,26.70
2022-07-29T14:14:41.107Z,26.80
2022-07-29T14:17:08.064Z,27.10
2022-07-29T14:19:36.708Z,27.20
2022-07-29T14:22:05.458Z,27.30
2022-07-29T14:24:34.700Z,27.40
2022-07-29T14:27:04.554Z,27.80
2022-07-29T14:29:37.668Z,27.80
2022-07-29T14:32:06.915Z,27.90
2022-07-29T14:34:34.407Z,28.10
2022-07-29T14:37:01.214Z,28.10
2022-07-29T14:39:31.757Z,28.20
2022-07-29T14:41:59.451Z,28.20
2022-07-29T14:44:32.000Z,28.30
2022-07-29T14:47:00.853Z,28.30
2022-07-29T14:49:28.077Z,28.20
2022-07-29T14:51:55.076Z,28.10
2022-07-29T14:54:21.933Z,28.10
2022-07-29T14:56:50.315Z,28.00
2022-07-29T14:59:17.519Z,28.00
2022-07-29T15:01:44.315Z,28.00
2022-07-29T15:04:11.091Z,28.00
2022-07-29T15:06:38.828Z,28.00
2022-07-29T15:09:05.638Z,28.00
2022-07-29T15:11:32.516Z,27.90
2022-07-29T15:14:08.167Z,27.80
2022-07-29T15:16:37.855Z,27.70
2022-07-29T15:19:05.739Z,27.60
2022-07-29T15:21:33.041Z,27.50
2022-07-29T15:24:02.254Z,27.40
2022-07-29T15:26:28.981Z,27.40
2022-07-29T15:28:57.117Z,27.40
2022-07-29T15:31:23.854Z,27.40
2022-07-29T15:33:54.383Z,27.30
2022-07-29T15:36:50.717Z,27.30
2022-07-29T15:39:10.613Z,27.10
2022-07-29T15:41:37.542Z,27.00
2022-07-29T15:44:04.469Z,27.00
2022-07-29T15:46:49.881Z,27.10
2022-07-29T15:49:16.675Z,27.00
2022-07-29T15:51:43.510Z,27.00
2022-07-29T15:54:10.253Z,26.90
2022-07-29T15:56:36.949Z,26.90
2022-07-29T15:59:03.839Z,26.80
2022-07-29T16:01:30.669Z,26.80
2022-07-29T16:03:58.616Z,26.80
2022-07-29T16:06:25.331Z,26.80
2022-07-29T16:08:52.046Z,26.80
2022-07-29T16:11:18.713Z,26.80
2022-07-29T16:13:45.457Z,26.70
2022-07-29T16:16:13.131Z,26.70
2022-07-29T16:18:39.831Z,26.70
2022-07-29T16:21:06.501Z,26.60
2022-07-29T16:23:36.263Z,26.60
2022-07-29T16:26:02.928Z,26.60
2022-07-29T16:28:30.636Z,26.50
2022-07-29T16:30:57.874Z,26.50
2022-07-29T16:33:25.087Z,26.50
2022-07-29T16:35:52.801Z,26.50
2022-07-29T16:38:19.597Z,26.50
2022-07-29T16:40:46.639Z,26.40
2022-07-29T16:43:13.464Z,26.40
2022-07-29T16:45:45.331Z,26.40
2022-07-29T16:48:14.256Z,26.40
2022-07-29T16:50:41.417Z,26.40
2022-07-29T16:53:10.830Z,26.30
2022-07-29T16:55:37.744Z,26.20
2022-07-29T16:58:04.541Z,26.20
2022-07-29T17:00:31.653Z,26.20
2022-07-29T17:02:59.945Z,26.10
2022-07-29T17:05:27.819Z,26.20
2022-07-29T17:07:54.885Z,26.10
2022-07-29T17:10:22.279Z,26.10
2022-07-29T17:12:49.017Z,26.10
2022-07-29T17:15:18.476Z,26.00
2022-07-29T17:17:55.104Z,26.00
2022-07-29T17:20:22.570Z,25.90
2022-07-29T17:22:49.264Z,25.90
2022-07-29T17:25:20.590Z,25.90
2022-07-29T17:27:50.400Z,25.90
2022-07-29T17:30:17.545Z,25.90
2022-07-29T17:32:44.250Z,25.80
2022-07-29T17:35:29.698Z,25.80
2022-07-29T17:37:56.659Z,25.80
2022-07-29T17:40:25.747Z,25.70
2022-07-29T17:42:52.463Z,25.60
2022-07-29T17:45:19.244Z,25.50
2022-07-29T17:47:45.961Z,25.50
2022-07-29T17:50:12.754Z,25.50
2022-07-29T17:52:39.557Z,25.50
2022-07-29T17:55:07.150Z,25.50
2022-07-29T17:57:34.173Z,25.40
2022-07-29T18:00:00.918Z,25.40
2022-07-29T18:02:28.613Z,25.30
2022-07-29T18:04:58.427Z,25.30
2022-07-29T18:07:25.109Z,25.30
2022-07-29T18:09:51.796Z,25.20
2022-07-29T18:12:18.542Z,25.20
2022-07-29T18:14:45.226Z,25.10
2022-07-29T18:17:11.961Z,25.10
2022-07-29T18:19:38.900Z,25.00
2022-07-29T18:22:07.351Z,24.90
2022-07-29T18:24:34.943Z,24.90
2022-07-29T18:27:02.037Z,24.80
2022-07-29T18:29:30.295Z,24.70
2022-07-29T18:31:58.807Z,24.60
2022-07-29T18:34:25.758Z,24.60
2022-07-29T18:36:52.547Z,24.60
2022-07-29T18:39:20.975Z,24.50
2022-07-29T18:41:51.614Z,24.40
2022-07-29T18:44:22.102Z,24.40
2022-07-29T18:46:50.487Z,24.30
2022-07-29T18:49:17.344Z,24.30
2022-07-29T18:51:44.093Z,24.30
2022-07-29T18:54:13.711Z,24.30
2022-07-29T18:56:40.390Z,24.20
2022-07-29T18:59:07.384Z,24.20
2022-07-29T19:01:34.154Z,24.10
2022-07-29T19:04:01.415Z,24.10
2022-07-29T19:06:28.178Z,24.10
2022-07-29T19:08:54.905Z,24.00
2022-07-29T19:11:21.830Z,24.00
2022-07-29T19:13:48.821Z,23.90
2022-07-29T19:16:15.571Z,23.90
2022-07-29T19:18:43.485Z,23.80
2022-07-29T19:21:11.091Z,23.70
2022-07-29T19:24:01.791Z,23.60
2022-07-29T19:26:24.541Z,23.60
2022-07-29T19:28:53.350Z,23.50
2022-07-29T19:31:20.197Z,23.50
2022-07-29T19:33:46.977Z,23.40
2022-07-29T19:36:13.683Z,23.40
2022-07-29T19:38:40.494Z,23.30
2022-07-29T19:41:07.227Z,23.30
2022-07-29T19:43:51.499Z,23.20
2022-07-29T19:46:21.316Z,23.20
2022-07-29T19:48:48.423Z,23.20
2022-07-29T19:51:15.313Z,23.10
2022-07-29T19:53:42.016Z,23.10
2022-07-29T19:56:09.128Z,23.00
2022-07-29T19:58:36.206Z,23.00
2022-07-29T20:01:10.708Z,22.90
2022-07-29T20:03:39.957Z,22.90
2022-07-29T20:06:10.386Z,22.90
2022-07-29T20:08:37.238Z,22.90
2022-07-29T20:11:04.101Z,22.80
2022-07-29T20:13:33.085Z,22.80
2022-07-29T20:16:05.244Z,22.70
2022-07-29T20:18:32.121Z,22.60
2022-07-29T20:21:00.253Z,22.60
2022-07-29T20:23:30.169Z,22.60
2022-07-29T20:26:00.340Z,22.50
2022-07-29T20:28:27.625Z,22.50
2022-07-29T20:30:56.939Z,22.40
2022-07-29T20:33:26.571Z,22.30
2022-07-29T20:35:53.463Z,22.30
2022-07-29T20:38:22.990Z,22.20
2022-07-29T20:40:50.775Z,22.10
2022-07-29T20:43:17.567Z,22.10
2022-07-29T20:45:44.493Z,22.00
2022-07-29T20:48:11.630Z,22.00
2022-07-29T20:50:38.447Z,22.00
2022-07-29T20:53:05.337Z,21.90
2022-07-29T20:55:32.253Z,21.90
2022-07-29T20:57:59.044Z,21.80
2022-07-29T21:00:25.868Z,21.80
2022-07-29T21:02:52.678Z,21.70
2022-07-29T21:05:19.495Z,21.70
2022-07-29T21:07:46.277Z,21.70
2022-07-29T21:10:18.229Z,21.70
2022-07-29T21:12:48.684Z,21.70
2022-07-29T21:15:16.251Z,21.60
2022-07-29T21:17:48.937Z,21.60
2022-07-29T21:20:19.487Z,21.50
2022-07-29T21:22:49.037Z,21.40
2022-07-29T21:25:15.834Z,21.30
2022-07-29T21:28:00.986Z,21.30
2022-07-29T21:30:27.821Z,21.30
2022-07-29T21:32:54.579Z,21.30
2022-07-29T21:35:45.363Z,21.20
2022-07-29T21:38:07.997Z,21.20
2022-07-29T21:40:34.732Z,21.20
2022-07-29T21:43:04.394Z,21.10
2022-07-29T21:45:31.115Z,21.00
2022-07-29T21:47:57.766Z,21.00
2022-07-29T21:50:24.444Z,20.90
2022-07-29T21:52:51.176Z,20.90
2022-07-29T21:55:18.611Z,20.80
2022-07-29T21:57:46.151Z,20.80
2022-07-29T22:00:16.260Z,20.70
2022-07-29T22:02:43.576Z,20.70
2022-07-29T22:05:12.297Z,20.70
2022-07-29T22:07:55.907Z,20.70
2022-07-29T22:10:27.557Z,20.60
2022-07-29T22:12:56.745Z,20.60
2022-07-29T22:15:24.336Z,20.60
2022-07-29T22:17:51.240Z,20.50
2022-07-29T22:20:18.513Z,20.50
2022-07-29T22:22:45.578Z,20.40
2022-07-29T22:25:12.456Z,20.40
2022-07-29T22:27:39.325Z,20.30
2022-07-29T22:30:07.370Z,20.30
2022-07-29T22:32:34.554Z,20.30
2022-07-29T22:35:01.464Z,20.30
2022-07-29T22:37:28.369Z,20.20
2022-07-29T22:39:55.065Z,20.20
2022-07-29T22:42:21.787Z,20.20
2022-07-29T22:44:48.525Z,20.20
2022-07-29T22:47:15.257Z,20.20
2022-07-29T22:49:42.077Z,20.20
2022-07-29T22:52:09.155Z,20.10
2022-07-29T22:54:35.865Z,20.10
2022-07-29T22:57:03.160Z,20.10
2022-07-29T22:59:30.011Z,20.00
2022-07-29T23:01:56.787Z,20.00
2022-07-29T23:04:23.764Z,19.90
2022-07-29T23:06:51.126Z,19.90
2022-07-29T23:09:17.982Z,19.80
2022-07-29T23:11:45.034Z,19.80
2022-07-29T23:14:11.762Z,19.70
2022-07-29T23:16:38.580Z,19.70
2022-07-29T23:19:05.502Z,19.60
2022-07-29T23:21:32.182Z,19.60
2022-07-29T23:23:59.019Z,19.50
2022-07-29T23:26:25.828Z,19.50
2022-07-29T23:28:52.562Z,19.40
2022-07-29T23:31:19.348Z,19.40
2022-07-29T23:33:46.040Z,19.30
2022-07-29T23:36:12.782Z,19.30
2022-07-29T23:38:43.092Z,19.20
2022-07-29T23:41:09.921Z,19.20
2022-07-29T23:43:37.677Z,19.20
2022-07-29T23:46:05.015Z,19.10
2022-07-29T23:48:34.476Z,19.10
2022-07-29T23:51:01.297Z,19.10
2022-07-29T23:53:28.588Z,19.10
2022-07-29T23:55:56.070Z,19.00
2022-07-29T23:58:23.118Z,19.00
